sensor_id;sensor_type;location;lat;lon;timestamp;P1;P2;P0
77825;PMS7003;67015;46.242;6.028;2023-02-18T00:29:31;42;;
77825;PMS7003;67015;46.242;6.028;2023-02-18T00:59:30;34;;
77825;PMS7003;67015;46.242;6.028;2023-02-18T01:29:30;18;;
77825;PMS7003;67015;46.242;6.028;2023-02-18T01:59:32;24;;
77825;PMS7003;67015;46.242;6.028;2023-02-18T02:29:36;16;;
77825;PMS7003;67015;46.242;6.028;2023-02-18T02:59:30;14;;
77825;PMS7003;67015;46.242;6.028;2023-02-18T03:29:30;16;;
77825;PMS7003;67015;46.242;6.028;2023-02-18T03:59:30;20;;
77825;PMS7003;67015;46.242;6.028;2023-02-18T04:29:30;10;;
77825;PMS7003;67015;46.242;6.028;2023-02-18T04:59:30;26;;
77825;PMS7003;67015;46.242;6.028;2023-02-18T05:29:30;14;;
77825;PMS7003;67015;46.242;6.028;2023-02-18T06:29:30;22;;
77825;PMS7003;67015;46.242;6.028;2023-02-18T06:59:30;24;;
77825;PMS7003;67015;46.242;6.028;2023-02-18T07:29:30;18;;
77825;PMS7003;67015;46.242;6.028;2023-02-18T07:59:30;32;;
77825;PMS7003;67015;46.242;6.028;2023-02-18T08:29:30;32;;
77825;PMS7003;67015;46.242;6.028;2023-02-18T09:29:30;28;;
77825;PMS7003;67015;46.242;6.028;2023-02-18T09:59:30;24;;
77825;PMS7003;67015;46.242;6.028;2023-02-18T10:29:30;26;;
77825;PMS7003;67015;46.242;6.028;2023-02-18T10:59:31;18;;
77825;PMS7003;67015;46.242;6.028;2023-02-18T11:29:29;36;;
77825;PMS7003;67015;46.242;6.028;2023-02-18T11:59:31;22;;
77825;PMS7003;67015;46.242;6.028;2023-02-18T12:29:33;14;;
77825;PMS7003;67015;46.242;6.028;2023-02-18T12:59:37;28;;
77825;PMS7003;67015;46.242;6.028;2023-02-18T13:29:31;20;;
77825;PMS7003;67015;46.242;6.028;2023-02-18T13:59:31;20;;
77825;PMS7003;67015;46.242;6.028;2023-02-18T14:29:30;10;;
77825;PMS7003;67015;46.242;6.028;2023-02-18T14:59:30;12;;
77825;PMS7003;67015;46.242;6.028;2023-02-18T15:29:30;8;;
77825;PMS7003;67015;46.242;6.028;2023-02-18T15:59:31;6;;
77825;PMS7003;67015;46.242;6.028;2023-02-18T16:29:33;6;;
77825;PMS7003;67015;46.242;6.028;2023-02-18T16:59:29;12;;
77825;PMS7003;67015;46.242;6.028;2023-02-18T17:29:29;38;;
77825;PMS7003;67015;46.242;6.028;2023-02-18T17:59:29;30;;
77825;PMS7003;67015;46.242;6.028;2023-02-18T18:29:29;76;;
77825;PMS7003;67015;46.242;6.028;2023-02-18T18:59:29;56;;
77825;PMS7003;67015;46.242;6.028;2023-02-18T19:29:29;92;;
77825;PMS7003;67015;46.242;6.028;2023-02-18T19:59:29;62;;
77825;PMS7003;67015;46.242;6.028;2023-02-18T20:29:29;34;;
77825;PMS7003;67015;46.242;6.028;2023-02-18T20:59:29;62;;
77825;PMS7003;67015;46.242;6.028;2023-02-18T21:29:29;42;;
77825;PMS7003;67015;46.242;6.028;2023-02-18T21:59:29;38;;
77825;PMS7003;67015;46.242;6.028;2023-02-18T22:29:30;42;;
77825;PMS7003;67015;46.242;6.028;2023-02-18T22:59:28;56;;
77825;PMS7003;67015;46.242;6.028;2023-02-18T23:29:29;34;;
77825;PMS7003;67015;46.242;6.028;2023-02-18T23:59:28;24;;
